Time;durP1;ratioP1;P1;durP2;ratioP2;P2;SDS_P1;SDS_P2;PMS_P1;PMS_P2;Temp;Humidity;BMP_temperature;BMP_pressure;BME280_temperature;BME280_humidity;BME280_pressure;Samples;Min_cycle;Max_cycle;Signal;HPM_P1;HPM_P2
2023/07/24 00:00:03;;;;;;;4.85;3.05;;;;;;;16.25;100.00;100026.41;5091868;28;20625;-64
2023/07/24 00:02:30;;;;;;;5.47;3.30;;;;;;;16.24;100.00;100013.94;5091588;28;20044;-63
2023/07/24 00:04:56;;;;;;;6.13;3.25;;;;;;;16.25;100.00;100012.88;5089698;28;20044;-63
2023/07/24 00:07:23;;;;;;;11.20;3.08;;;;;;;16.27;100.00;100008.91;5091703;28;20059;-62
2023/07/24 00:09:49;;;;;;;8.00;2.92;;;;;;;16.25;100.00;100010.16;5092487;28;20048;-64
2023/07/24 00:12:16;;;;;;;7.32;3.42;;;;;;;16.23;100.00;100012.25;5092615;28;20044;-64
2023/07/24 00:14:42;;;;;;;7.05;3.22;;;;;;;16.21;100.00;100000.81;5091312;28;20056;-64
2023/07/24 00:17:09;;;;;;;4.25;2.97;;;;;;;16.18;100.00;100002.06;5092417;28;20055;-64
2023/07/24 00:19:36;;;;;;;7.28;3.10;;;;;;;16.18;100.00;100002.06;5091721;28;20044;-63
2023/07/24 00:22:02;;;;;;;5.75;3.05;;;;;;;16.21;100.00;100004.34;5090846;28;20630;-63
2023/07/24 00:24:29;;;;;;;6.13;3.33;;;;;;;16.17;100.00;99997.72;5092091;28;20052;-63
2023/07/24 00:26:56;;;;;;;6.25;2.95;;;;;;;16.15;100.00;100000.63;5092229;28;20464;-63
2023/07/24 00:29:23;;;;;;;4.93;3.05;;;;;;;16.16;100.00;99996.91;5092030;28;20393;-63
2023/07/24 00:31:50;;;;;;;5.75;2.75;;;;;;;16.16;100.00;99998.78;5091578;28;20051;-64
2023/07/24 00:34:16;;;;;;;3.92;3.28;;;;;;;16.12;100.00;99990.22;5091726;28;20102;-64
2023/07/24 00:36:43;;;;;;;5.10;3.15;;;;;;;16.12;100.00;99987.53;5091633;28;20056;-65
2023/07/24 00:39:09;;;;;;;4.30;3.30;;;;;;;16.12;100.00;99982.09;5091500;28;20117;-64
2023/07/24 00:41:36;;;;;;;8.10;3.40;;;;;;;16.12;100.00;99983.97;5091529;28;20040;-64
2023/07/24 00:44:02;;;;;;;5.13;2.95;;;;;;;16.11;100.00;99980.44;5091452;28;20075;-64
2023/07/24 00:46:32;;;;;;;7.45;3.40;;;;;;;16.08;100.00;99978.16;5091514;28;20105;-63
2023/07/24 00:49:01;;;;;;;6.07;3.50;;;;;;;16.09;100.00;99974.44;5091511;28;20048;-64
2023/07/24 00:51:28;;;;;;;6.97;3.28;;;;;;;16.07;100.00;99976.53;5091551;28;20073;-63
2023/07/24 00:54:02;;;;;;;6.65;3.20;;;;;;;16.07;100.00;99971.09;5091558;28;20454;-65
2023/07/24 00:56:31;;;;;;;10.65;3.40;;;;;;;16.07;100.00;99967.59;5091306;28;20054;-64
2023/07/24 00:58:59;;;;;;;4.88;2.85;;;;;;;16.07;100.00;99964.88;5091227;28;20480;-63
2023/07/24 01:01:26;;;;;;;6.25;2.92;;;;;;;16.05;100.00;99965.06;5091062;28;20121;-64
2023/07/24 01:03:53;;;;;;;7.93;3.38;;;;;;;16.04;100.00;99951.78;5090692;28;20052;-64
2023/07/24 01:10:00;;;;;;;8.00;3.33;;;;;;;15.96;100.00;99947.44;5090093;28;20109;-63
2023/07/24 01:12:35;;;;;;;5.40;3.30;;;;;;;15.95;100.00;99948.47;5091239;28;20404;-64
2023/07/24 01:15:56;;;;;;;5.70;3.55;;;;;;;15.88;100.00;99944.97;5089954;28;20052;-64
2023/07/24 01:18:24;;;;;;;6.40;3.40;;;;;;;15.88;100.00;99936.84;5028690;28;20046;-67
2023/07/24 01:20:55;;;;;;;5.90;2.65;;;;;;;15.84;100.00;99932.91;5028275;28;20053;-63
2023/07/24 01:24:03;;;;;;;8.33;2.90;;;;;;;15.82;100.00;99930.44;5028346;28;20622;-64
2023/07/24 01:26:30;;;;;;;6.35;3.38;;;;;;;15.80;100.00;99937.09;5026699;28;20359;-63
2023/07/24 01:28:57;;;;;;;6.20;3.53;;;;;;;15.83;100.00;99931.25;5027123;28;20660;-64
2023/07/24 01:31:23;;;;;;;4.20;2.92;;;;;;;15.86;100.00;99949.78;5027411;28;20123;-64
2023/07/24 01:33:50;;;;;;;10.73;2.97;;;;;;;15.86;100.00;99942.47;5027876;28;20533;-62
2023/07/24 01:36:18;;;;;;;5.32;3.20;;;;;;;15.86;100.00;99938.94;5026307;28;20050;-65
2023/07/24 01:38:47;;;;;;;5.05;3.00;;;;;;;15.85;100.00;99937.31;5026894;28;20525;-64
2023/07/24 01:41:14;;;;;;;7.22;3.20;;;;;;;15.86;100.00;99931.66;5026950;28;20239;-63
2023/07/24 01:43:41;;;;;;;4.85;2.67;;;;;;;15.86;100.00;99931.66;5010955;28;20087;-63
2023/07/24 01:46:08;;;;;;;5.65;3.22;;;;;;;15.86;100.00;99941.66;5026339;28;20049;-63
2023/07/24 01:48:35;;;;;;;4.57;3.08;;;;;;;15.83;100.00;99933.97;5047622;28;20506;-62
2023/07/24 01:51:01;;;;;;;4.22;3.25;;;;;;;15.83;100.00;99932.09;5089501;28;20044;-63
2023/07/24 01:53:28;;;;;;;7.10;2.88;;;;;;;15.82;100.00;99926.91;5089432;28;20044;-65
2023/07/24 01:55:54;;;;;;;6.72;3.20;;;;;;;15.85;100.00;99918.38;5089494;28;20048;-64
2023/07/24 01:58:21;;;;;;;6.05;3.55;;;;;;;15.84;100.00;99922.09;5089811;28;20481;-63
2023/07/24 02:00:48;;;;;;;5.35;2.95;;;;;;;15.84;100.00;99919.38;5090218;28;20147;-63
2023/07/24 02:03:14;;;;;;;10.38;3.13;;;;;;;15.87;100.00;99916.25;5090634;28;20044;-63
2023/07/24 02:05:41;;;;;;;8.55;3.78;;;;;;;15.87;100.00;99916.25;5091029;28;20480;-64
2023/07/24 02:08:08;;;;;;;7.38;3.30;;;;;;;15.85;100.00;99915.66;5091035;28;20410;-64
2023/07/24 02:10:37;;;;;;;4.68;2.75;;;;;;;15.83;100.00;99917.72;5090327;28;20043;-63
2023/07/24 02:13:06;;;;;;;4.18;2.95;;;;;;;15.87;100.00;99908.16;5090550;28;20501;-64
2023/07/24 02:15:33;;;;;;;7.03;3.40;;;;;;;15.84;100.00;99906.69;5090545;28;20048;-63
2023/07/24 02:17:59;;;;;;;4.63;3.25;;;;;;;15.86;100.00;99909.19;5090371;28;20052;-64
2023/07/24 02:20:26;;;;;;;12.82;3.67;;;;;;;15.86;100.00;99911.91;5090436;28;20389;-63
2023/07/24 02:22:52;;;;;;;5.93;3.05;;;;;;;15.83;100.00;99896.09;5093751;28;20536;-64
2023/07/24 02:25:19;;;;;;;6.70;3.30;;;;;;;15.87;100.00;99897.31;5093987;28;20098;-64
2023/07/24 02:27:45;;;;;;;9.13;3.38;;;;;;;15.86;100.00;99895.69;5094304;28;20388;-63
2023/07/24 02:30:12;;;;;;;4.38;3.10;;;;;;;15.88;100.00;99897.13;5093924;28;20052;-62
2023/07/24 02:32:38;;;;;;;9.65;4.30;;;;;;;15.92;100.00;99900.22;5093904;28;20597;-66
2023/07/24 02:35:05;;;;;;;10.27;3.47;;;;;;;15.89;100.00;99897.94;5094173;28;20078;-63
2023/07/24 02:37:32;;;;;;;6.65;2.97;;;;;;;15.90;100.00;99900.44;5094097;28;20052;-63
2023/07/24 02:39:58;;;;;;;7.28;3.85;;;;;;;15.88;100.00;99896.28;5093858;28;20052;-64
2023/07/24 02:42:25;;;;;;;6.95;3.80;;;;;;;15.86;100.00;99906.50;5094074;28;20048;-63
2023/07/24 02:44:53;;;;;;;5.28;3.60;;;;;;;15.91;100.00;99912.06;5093428;28;20055;-63
2023/07/24 02:47:20;;;;;;;5.43;3.35;;;;;;;15.87;100.00;99917.09;5093950;28;20465;-64
2023/07/24 02:49:46;;;;;;;6.78;3.20;;;;;;;15.88;100.00;99909.78;5093665;28;20048;-65
2023/07/24 02:52:13;;;;;;;6.03;3.35;;;;;;;15.86;100.00;99914.59;5093927;28;20048;-64
2023/07/24 02:54:39;;;;;;;11.05;3.92;;;;;;;15.86;100.00;99920.84;5093989;28;20059;-64
2023/07/24 02:57:06;;;;;;;9.50;3.50;;;;;;;15.89;100.00;99928.53;5093342;28;20108;-65
2023/07/24 02:59:34;;;;;;;6.45;3.10;;;;;;;15.91;100.00;99925.59;5093585;28;20060;-64
2023/07/24 03:02:02;;;;;;;6.55;3.55;;;;;;;15.91;100.00;99925.59;5093634;28;20099;-65
2023/07/24 03:04:28;;;;;;;4.45;3.22;;;;;;;15.91;100.00;99931.00;5093671;28;20044;-64
2023/07/24 03:06:55;;;;;;;7.35;3.22;;;;;;;15.90;100.00;99932.88;5093084;28;20056;-63
2023/07/24 03:09:21;;;;;;;5.85;2.80;;;;;;;15.90;100.00;99930.19;5093253;28;20055;-64
2023/07/24 03:11:48;;;;;;;4.60;2.80;;;;;;;15.90;100.00;99935.59;5093255;28;20104;-63
2023/07/24 03:14:14;;;;;;;12.80;2.70;;;;;;;15.91;100.00;99934.53;5093591;28;20559;-67
2023/07/24 03:16:41;;;;;;;7.22;2.67;;;;;;;15.93;100.00;99942.47;5093398;28;20469;-63
2023/07/24 03:19:07;;;;;;;4.93;2.50;;;;;;;15.90;100.00;99932.88;5092703;28;20044;-64
2023/07/24 03:21:34;;;;;;;6.93;2.53;;;;;;;15.90;100.00;99927.47;5093452;28;20457;-64
2023/07/24 03:24:01;;;;;;;5.57;2.42;;;;;;;15.89;100.00;99931.25;5093317;28;20075;-64
2023/07/24 03:26:27;;;;;;;4.47;2.70;;;;;;;15.91;100.00;99941.81;5092980;28;20052;-63
2023/07/24 03:28:54;;;;;;;7.47;2.40;;;;;;;15.87;100.00;99933.31;5092000;28;20048;-63
2023/07/24 03:31:21;;;;;;;3.75;2.83;;;;;;;15.87;100.00;99933.31;5092479;28;20048;-64
2023/07/24 03:33:48;;;;;;;6.07;2.50;;;;;;;15.85;100.00;99935.41;5092357;28;20097;-65
2023/07/24 03:36:14;;;;;;;3.83;2.50;;;;;;;15.92;100.00;99935.41;5093046;28;20639;-64
2023/07/24 03:38:41;;;;;;;3.80;2.15;;;;;;;15.87;100.00;99933.31;5092826;28;20052;-63
2023/07/24 03:41:07;;;;;;;5.32;2.08;;;;;;;15.83;100.00;99939.38;5092837;28;20048;-62
2023/07/24 03:43:34;;;;;;;3.88;2.45;;;;;;;15.84;100.00;99938.31;5092912;28;20438;-65
2023/07/24 03:46:00;;;;;;;4.95;2.58;;;;;;;15.77;100.00;99940.22;5092487;28;20052;-63
2023/07/24 03:48:27;;;;;;;4.63;2.45;;;;;;;15.79;100.00;99940.84;5092694;28;20135;-64
2023/07/24 03:51:00;;;;;;;5.38;2.60;;;;;;;15.79;100.00;99938.97;5092580;28;20059;-63
2023/07/24 03:53:27;;;;;;;3.25;2.20;;;;;;;15.81;100.00;99938.75;5092055;28;20094;-65
2023/07/24 03:55:54;;;;;;;5.93;2.58;;;;;;;15.85;100.00;99945.41;5092309;28;20079;-63
2023/07/24 03:58:21;;;;;;;6.55;2.30;;;;;;;15.82;100.00;99940.44;5092840;28;20052;-64
2023/07/24 04:00:47;;;;;;;3.85;2.25;;;;;;;15.85;100.00;99946.25;5092088;28;20048;-64
2023/07/24 04:03:15;;;;;;;4.32;2.33;;;;;;;15.87;100.00;99948.72;5091043;28;20048;-64
2023/07/24 04:05:41;;;;;;;3.80;2.50;;;;;;;15.86;100.00;99945.19;5092089;28;20055;-66
2023/07/24 04:08:08;;;;;;;4.28;2.35;;;;;;;15.85;100.00;99943.53;5092426;28;20075;-63
2023/07/24 04:10:35;;;;;;;3.05;2.25;;;;;;;15.87;100.00;99937.91;5092470;28;20569;-64
2023/07/24 04:13:01;;;;;;;2.92;2.30;;;;;;;15.85;100.00;99937.31;5092023;28;20083;-64
2023/07/24 04:15:28;;;;;;;3.92;2.58;;;;;;;15.85;100.00;99932.72;5091942;28;20075;-62
2023/07/24 04:17:55;;;;;;;4.90;2.03;;;;;;;15.87;100.00;99937.91;5091761;28;20139;-64
2023/07/24 04:20:22;;;;;;;3.97;2.25;;;;;;;15.91;100.00;99939.13;5092166;28;20446;-63
2023/07/24 04:22:48;;;;;;;6.28;2.28;;;;;;;15.93;100.00;99932.47;5091758;28;20040;-63
2023/07/24 04:25:15;;;;;;;4.28;2.03;;;;;;;15.93;100.00;99926.22;5091890;28;20116;-63
2023/07/24 04:27:42;;;;;;;4.32;1.85;;;;;;;15.96;100.00;99931.22;5091531;28;20125;-64
2023/07/24 04:30:08;;;;;;;4.15;2.33;;;;;;;16.04;100.00;99938.25;5091993;28;20052;-63
2023/07/24 04:32:35;;;;;;;5.57;2.10;;;;;;;16.04;100.00;99933.66;5092069;28;20617;-64
2023/07/24 04:35:02;;;;;;;2.42;1.70;;;;;;;16.05;100.00;99935.31;5090364;28;20423;-63
2023/07/24 04:37:28;;;;;;;4.38;1.70;;;;;;;16.11;100.00;99937.16;5091277;28;20070;-63
2023/07/24 04:39:55;;;;;;;8.93;1.90;;;;;;;16.13;100.00;99926.13;5070745;28;20048;-63
2023/07/24 04:42:22;;;;;;;4.15;2.00;;;;;;;16.22;100.00;99929.41;5069877;28;20101;-64
2023/07/24 04:44:50;;;;;;;4.55;2.70;;;;;;;16.30;100.00;99929.16;5070593;28;20462;-64
2023/07/24 04:47:16;;;;;;;4.88;2.90;;;;;;;16.35;100.00;99927.47;5070763;28;20420;-64
2023/07/24 04:49:43;;;;;;;9.13;3.53;;;;;;;16.43;100.00;99929.88;5070947;28;20056;-64
2023/07/24 04:52:10;;;;;;;9.07;2.97;;;;;;;16.51;100.00;99926.16;5076835;28;20048;-63
2023/07/24 04:54:36;;;;;;;2.63;1.95;;;;;;;16.59;100.00;99931.28;5091362;28;20165;-64
2023/07/24 04:57:03;;;;;;;3.33;1.77;;;;;;;16.54;100.00;99931.13;5091541;28;20724;-64
2023/07/24 04:59:30;;;;;;;4.50;1.63;;;;;;;16.59;100.00;99933.16;5089680;28;20109;-65
2023/07/24 05:01:56;;;;;;;3.38;1.40;;;;;;;16.58;100.00;99924.22;5090880;28;20448;-64
2023/07/24 05:04:23;;;;;;;5.18;1.90;;;;;;;16.67;100.00;99920.19;5091325;28;20070;-64
2023/07/24 05:06:49;;;;;;;3.30;1.60;;;;;;;16.74;100.00;99916.59;5090642;28;20078;-65
2023/07/24 05:09:17;;;;;;;3.05;1.40;;;;;;;16.84;100.00;99915.03;5089503;28;20087;-64
2023/07/24 05:11:44;;;;;;;5.97;2.22;;;;;;;17.01;100.00;99915.31;5090749;28;20117;-63
2023/07/24 05:14:11;;;;;;;4.18;2.08;;;;;;;17.09;100.00;99906.06;5088241;28;20095;-64
2023/07/24 05:16:37;;;;;;;2.40;1.33;;;;;;;17.24;100.00;99906.56;5090089;28;20056;-62
2023/07/24 05:19:04;;;;;;;2.00;1.40;;;;;;;17.26;100.00;99909.03;5091159;28;20050;-63
2023/07/24 05:21:31;;;;;;;8.85;1.48;;;;;;;17.23;100.00;99901.34;5091077;28;20121;-65
2023/07/24 05:23:57;;;;;;;17.25;2.40;;;;;;;17.43;100.00;99904.72;5090789;28;20048;-64
2023/07/24 05:26:24;;;;;;;10.25;2.45;;;;;;;17.47;100.00;99903.22;5090864;28;20468;-65
2023/07/24 05:28:52;;;;;;;5.97;1.88;;;;;;;17.45;100.00;99899.91;5091003;28;20442;-63
2023/07/24 05:31:20;;;;;;;8.02;2.28;;;;;;;17.48;100.00;99902.19;5090993;28;20496;-63
2023/07/24 05:33:46;;;;;;;3.40;1.52;;;;;;;17.47;100.00;99894.25;5090695;28;20124;-64
2023/07/24 05:36:13;;;;;;;4.03;1.42;;;;;;;17.37;100.00;99894.75;5090404;28;20048;-64
2023/07/24 05:38:40;;;;;;;1.95;1.35;;;;;;;17.36;100.00;99891.22;5090716;28;20066;-64
2023/07/24 05:41:06;;;;;;;5.13;1.48;;;;;;;17.51;100.00;99890.03;5090909;28;20458;-64
2023/07/24 05:43:33;;;;;;;2.80;1.52;;;;;;;17.63;100.00;99892.81;5090714;28;20465;-64
2023/07/24 05:45:59;;;;;;;3.33;1.70;;;;;;;17.64;100.00;99894.47;5090482;28;20052;-63
2023/07/24 05:48:26;;;;;;;2.92;1.33;;;;;;;17.69;100.00;99894.63;5089835;28;20127;-63
2023/07/24 05:50:53;;;;;;;1.23;1.10;;;;;;;17.61;100.00;99890.31;5090352;28;20044;-64
2023/07/24 05:53:19;;;;;;;4.10;1.58;;;;;;;17.64;100.00;99887.16;5090689;28;20040;-63
2023/07/24 05:55:46;;;;;;;2.10;1.52;;;;;;;17.61;100.00;99882.19;5090312;28;20101;-64
2023/07/24 05:58:12;;;;;;;2.08;1.30;;;;;;;17.59;100.00;99874.28;5090602;28;20048;-63
2023/07/24 06:00:39;;;;;;;2.05;1.40;;;;;;;17.48;100.00;99861.50;5089470;28;20401;-63
2023/07/24 06:03:05;;;;;;;2.63;1.52;;;;;;;17.48;100.00;99869.63;5090443;28;20048;-63
2023/07/24 06:05:34;;;;;;;2.55;1.48;;;;;;;17.47;100.00;99865.25;5090652;28;20055;-64
2023/07/24 06:08:01;;;;;;;5.57;2.05;;;;;;;17.54;100.00;99866.00;5090251;28;20051;-63
2023/07/24 06:10:27;;;;;;;2.63;1.83;;;;;;;17.58;100.00;99864.50;5089586;28;20056;-63
2023/07/24 06:12:54;;;;;;;8.02;2.10;;;;;;;17.61;100.00;99857.78;5090430;28;20117;-67
2023/07/24 06:15:21;;;;;;;5.30;2.08;;;;;;;17.63;100.00;99850.25;5090850;28;20169;-67
2023/07/24 06:17:47;;;;;;;7.07;2.03;;;;;;;17.62;100.00;99855.91;5090368;28;20052;-67
2023/07/24 06:20:17;;;;;;;7.70;2.38;;;;;;;17.64;100.00;99862.75;5090325;28;20479;-67
2023/07/24 06:22:44;;;;;;;5.05;2.00;;;;;;;17.67;100.00;99848.72;5090022;28;20108;-67
2023/07/24 06:25:11;;;;;;;2.63;2.10;;;;;;;17.71;100.00;99854.53;5082383;28;20052;-68
2023/07/24 06:27:37;;;;;;;5.50;2.08;;;;;;;17.75;100.00;99848.44;5070277;28;20553;-67
2023/07/24 06:30:05;;;;;;;4.10;2.30;;;;;;;17.81;100.00;99852.94;5070195;28;20056;-67
2023/07/24 06:32:41;;;;;;;3.08;2.10;;;;;;;17.83;100.00;99844.56;5069869;28;20051;-67
2023/07/24 06:35:08;;;;;;;3.17;2.10;;;;;;;17.84;100.00;99840.78;5070114;28;20098;-67
2023/07/24 06:37:35;;;;;;;3.00;2.05;;;;;;;17.94;100.00;99845.69;5070049;28;20121;-68
2023/07/24 06:40:02;;;;;;;7.35;2.20;;;;;;;17.99;100.00;99843.91;5070077;28;20485;-67
2023/07/24 06:42:29;;;;;;;4.88;2.60;;;;;;;18.00;100.00;99840.16;5070063;28;20434;-67
2023/07/24 06:44:55;;;;;;;3.65;2.33;;;;;;;18.11;100.00;99835.00;5069718;28;20102;-67
2023/07/24 06:47:22;;;;;;;10.07;5.25;;;;;;;18.16;100.00;99829.72;5069969;28;20441;-67
2023/07/24 06:49:48;;;;;;;3.53;2.45;;;;;;;18.33;100.00;99830.72;5069866;28;20074;-67
2023/07/24 06:52:15;;;;;;;5.05;2.10;;;;;;;18.60;100.00;99835.72;5069912;28;20445;-67
2023/07/24 06:54:41;;;;;;;4.43;2.60;;;;;;;19.09;100.00;99829.00;5070067;28;20563;-68
2023/07/24 06:57:08;;;;;;;6.22;2.60;;;;;;;19.13;100.00;99832.88;5070143;28;20691;-68
2023/07/24 06:59:35;;;;;;;6.43;2.50;;;;;;;19.21;100.00;99826.28;5069662;28;20053;-68
2023/07/24 07:02:02;;;;;;;9.60;3.00;;;;;;;19.24;100.00;99823.91;5069935;28;20048;-68
2023/07/24 07:04:28;;;;;;;7.85;2.65;;;;;;;19.30;100.00;99822.09;5069569;28;20053;-67
2023/07/24 07:06:55;;;;;;;2.72;2.00;;;;;;;19.29;100.00;99812.31;5069987;28;20052;-66
2023/07/24 07:09:21;;;;;;;6.40;2.40;;;;;;;19.41;100.00;99815.00;5073364;28;20519;-67
2023/07/24 07:11:48;;;;;;;4.97;2.45;;;;;;;19.65;100.00;99815.75;5073571;28;20049;-67
2023/07/24 07:14:15;;;;;;;6.40;3.15;;;;;;;19.73;100.00;99813.50;5073699;28;20048;-66
2023/07/24 07:16:42;;;;;;;3.58;2.72;;;;;;;19.92;100.00;99819.56;5073178;28;20587;-67
2023/07/24 07:19:11;;;;;;;7.43;2.40;;;;;;;20.08;100.00;99808.97;5073032;28;20484;-66
2023/07/24 07:21:39;;;;;;;6.25;2.78;;;;;;;20.18;100.00;99811.88;5073154;28;20048;-66
2023/07/24 07:24:05;;;;;;;2.28;2.08;;;;;;;20.66;100.00;99800.44;5073211;28;20549;-67
2023/07/24 07:26:33;;;;;;;5.50;2.33;;;;;;;20.77;100.00;99798.69;5073361;28;20113;-66
2023/07/24 07:28:59;;;;;;;4.60;2.35;;;;;;;21.09;100.00;99795.28;5073263;28;20462;-66
2023/07/24 07:31:26;;;;;;;7.03;2.13;;;;;;;21.42;100.00;99809.91;5073147;28;20045;-66
2023/07/24 07:33:52;;;;;;;4.95;2.25;;;;;;;21.72;99.16;99799.34;5072813;28;20048;-66
2023/07/24 07:36:19;;;;;;;5.20;2.55;;;;;;;22.06;95.25;99807.38;5073105;28;20450;-66
2023/07/24 07:38:45;;;;;;;7.05;2.25;;;;;;;22.54;91.08;99811.91;5072892;28;20098;-68
2023/07/24 07:41:12;;;;;;;4.05;2.10;;;;;;;22.92;87.09;99818.19;5072167;28;20049;-67
2023/07/24 07:43:39;;;;;;;6.03;2.60;;;;;;;23.29;79.44;99825.53;5072848;28;20075;-67
2023/07/24 07:46:06;;;;;;;2.78;2.13;;;;;;;23.35;78.05;99819.00;5072869;28;20045;-67
2023/07/24 07:48:32;;;;;;;1.88;1.67;;;;;;;23.65;76.33;99818.28;5072647;28;20047;-66
2023/07/24 07:50:59;;;;;;;3.65;2.03;;;;;;;23.82;74.80;99829.06;5072657;28;20502;-66
2023/07/24 07:53:26;;;;;;;2.75;2.13;;;;;;;24.12;73.32;99830.19;5072203;28;20110;-67
2023/07/24 07:55:57;;;;;;;2.38;1.98;;;;;;;24.55;69.91;99817.91;5072598;28;20045;-66
2023/07/24 07:58:23;;;;;;;3.83;1.73;;;;;;;24.60;65.85;99812.41;5072843;28;20102;-68
2023/07/24 08:00:55;;;;;;;3.25;2.03;;;;;;;24.67;65.21;99812.94;5072056;28;20076;-66
2023/07/24 08:03:22;;;;;;;3.03;1.85;;;;;;;24.71;64.23;99806.91;5071976;28;20401;-68
2023/07/24 08:05:48;;;;;;;2.53;1.92;;;;;;;24.70;64.07;99810.75;5072291;28;20048;-67
2023/07/24 08:08:15;;;;;;;3.90;2.35;;;;;;;24.64;64.66;99808.00;5072266;28;20048;-67
2023/07/24 08:10:41;;;;;;;7.35;1.77;;;;;;;24.82;63.95;99803.03;5072501;28;20048;-67
2023/07/24 08:13:08;;;;;;;14.32;2.78;;;;;;;24.68;64.22;99792.66;5072366;28;20041;-67
2023/07/24 08:15:35;;;;;;;3.80;1.95;;;;;;;24.53;63.29;99786.38;5071872;28;20062;-67
2023/07/24 08:18:04;;;;;;;2.67;1.73;;;;;;;24.70;64.49;99786.91;5072278;28;20049;-68
2023/07/24 08:20:34;;;;;;;7.10;2.70;;;;;;;24.78;62.85;99777.28;5072163;28;20071;-67
2023/07/24 08:23:01;;;;;;;5.68;2.08;;;;;;;25.12;61.46;99782.97;5072022;28;20070;-67
2023/07/24 08:25:27;;;;;;;2.05;1.40;;;;;;;25.46;59.35;99777.59;5071746;28;20048;-67
2023/07/24 08:27:54;;;;;;;2.95;1.83;;;;;;;25.46;59.41;99790.53;5071913;28;20071;-67
2023/07/24 08:30:26;;;;;;;5.75;2.17;;;;;;;24.85;59.79;99778.66;5072091;28;20052;-66
2023/07/24 08:32:53;;;;;;;3.83;1.48;;;;;;;24.61;61.90;99778.44;5071867;28;20048;-66
2023/07/24 08:35:20;;;;;;;1.50;1.40;;;;;;;24.32;62.67;99772.66;5072044;28;20048;-67
2023/07/24 08:37:47;;;;;;;1.98;1.45;;;;;;;23.85;64.97;99761.94;5070920;28;20052;-66
2023/07/24 08:40:15;;;;;;;2.28;1.75;;;;;;;23.49;66.30;99748.16;5071810;28;20098;-65
2023/07/24 08:42:48;;;;;;;4.40;1.95;;;;;;;23.24;68.37;99757.91;5071356;28;20056;-65
2023/07/24 08:45:15;;;;;;;3.55;1.90;;;;;;;23.06;70.10;99749.34;5071875;28;20056;-66
2023/07/24 08:47:44;;;;;;;5.75;2.17;;;;;;;23.45;69.67;99744.31;5071033;28;20080;-66
2023/07/24 08:50:12;;;;;;;2.03;1.50;;;;;;;23.91;67.53;99744.41;5071712;28;20048;-67
2023/07/24 08:52:39;;;;;;;5.55;2.30;;;;;;;24.09;65.74;99751.25;5071852;28;20127;-67
2023/07/24 08:55:07;;;;;;;7.53;2.20;;;;;;;23.95;67.04;99742.75;5071570;28;20664;-67
2023/07/24 08:57:35;;;;;;;14.15;2.63;;;;;;;23.97;67.60;99737.84;5071377;28;20052;-67
2023/07/24 09:00:04;;;;;;;4.57;1.85;;;;;;;24.07;67.13;99737.84;5069485;28;20056;-66
2023/07/24 09:02:33;;;;;;;8.60;2.05;;;;;;;24.49;66.20;99741.41;5071415;28;20468;-67
2023/07/24 09:05:00;;;;;;;3.35;1.92;;;;;;;24.88;63.11;99727.88;5071471;28;20508;-67
2023/07/24 09:07:30;;;;;;;3.55;1.55;;;;;;;25.29;61.64;99717.56;5071375;28;20074;-66
2023/07/24 09:09:57;;;;;;;2.60;1.75;;;;;;;25.63;60.41;99721.53;5071031;28;20053;-66
2023/07/24 09:12:24;;;;;;;4.25;1.85;;;;;;;25.27;61.05;99719.78;5071474;28;20516;-67
2023/07/24 09:15:02;;;;;;;4.15;2.17;;;;;;;26.03;59.53;99712.13;5071353;28;20051;-67
2023/07/24 09:17:28;;;;;;;4.47;1.92;;;;;;;26.43;56.74;99713.72;5071221;28;20048;-67
2023/07/24 09:19:58;;;;;;;3.90;1.65;;;;;;;26.60;55.52;99718.78;5070654;28;20053;-65
2023/07/24 09:22:26;;;;;;;4.82;1.45;;;;;;;26.42;55.25;99712.09;5071564;28;20554;-68
2023/07/24 09:24:56;;;;;;;5.85;1.83;;;;;;;26.51;54.86;99709.53;5070642;28;20101;-67
2023/07/24 09:27:28;;;;;;;6.28;1.77;;;;;;;25.94;56.47;99714.69;5071035;28;20106;-67
2023/07/24 09:29:57;;;;;;;9.75;1.95;;;;;;;25.69;57.95;99704.72;5070388;28;20673;-67
2023/07/24 09:32:26;;;;;;;3.97;2.05;;;;;;;25.66;58.67;99699.00;5070622;28;20478;-67
2023/07/24 09:34:56;;;;;;;2.97;2.05;;;;;;;25.41;57.17;99708.16;5071087;28;20436;-68
2023/07/24 09:37:28;;;;;;;7.07;2.10;;;;;;;25.44;58.03;99713.09;5070986;28;20408;-67
2023/07/24 09:39:55;;;;;;;7.03;2.00;;;;;;;25.05;58.97;99711.09;5071119;28;20053;-67
2023/07/24 09:42:36;;;;;;;5.57;1.85;;;;;;;25.06;58.51;99716.31;5070255;28;20101;-66
2023/07/24 09:45:25;;;;;;;3.80;1.80;;;;;;;25.44;58.68;99711.16;5070499;28;20048;-68
2023/07/24 09:47:53;;;;;;;4.40;2.00;;;;;;;25.08;58.68;99711.34;5070775;28;20044;-68
2023/07/24 09:50:28;;;;;;;6.10;2.25;;;;;;;25.33;58.08;99704.91;5069033;28;20064;-67
2023/07/24 09:52:57;;;;;;;2.53;1.95;;;;;;;26.33;55.58;99708.34;5069544;28;20098;-67
2023/07/24 09:55:34;;;;;;;3.95;2.63;;;;;;;26.35;55.24;99697.06;5069790;28;20052;-66
2023/07/24 09:58:02;;;;;;;4.38;2.13;;;;;;;26.95;53.00;99703.81;5070195;28;20055;-68
2023/07/24 10:00:30;;;;;;;7.10;2.50;;;;;;;27.81;50.18;99700.16;5069823;28;20063;-67
2023/07/24 10:02:58;;;;;;;5.35;2.03;;;;;;;28.14;49.05;99692.72;5070652;28;20057;-66
2023/07/24 10:05:25;;;;;;;6.10;2.25;;;;;;;28.51;47.65;99677.19;5070311;28;20088;-67
2023/07/24 10:07:52;;;;;;;3.08;1.88;;;;;;;29.20;45.61;99672.47;5070622;28;20508;-67
2023/07/24 10:10:20;;;;;;;5.25;2.13;;;;;;;30.22;43.46;99669.19;5070407;28;20045;-67
2023/07/24 10:12:48;;;;;;;3.35;2.20;;;;;;;30.16;42.23;99659.41;5070044;28;20076;-67
2023/07/24 10:15:15;;;;;;;2.90;2.30;;;;;;;30.06;42.23;99649.44;5070140;28;20044;-66
2023/07/24 10:17:41;;;;;;;11.48;2.45;;;;;;;30.85;41.53;99650.56;5070470;28;20456;-68
2023/07/24 10:20:10;;;;;;;7.95;2.42;;;;;;;30.95;40.77;99639.19;5070555;28;20733;-66
2023/07/24 10:22:41;;;;;;;6.55;2.78;;;;;;;29.54;41.39;99630.53;5069639;28;20059;-67
2023/07/24 10:25:10;;;;;;;4.80;2.40;;;;;;;28.18;44.50;99642.22;5069976;28;20127;-65
2023/07/24 10:27:46;;;;;;;6.55;3.03;;;;;;;27.74;44.42;99629.72;5070003;28;20482;-66
2023/07/24 10:30:12;;;;;;;7.20;3.50;;;;;;;28.91;42.54;99626.69;5070207;28;20045;-68
2023/07/24 10:33:13;;;;;;;8.90;3.10;;;;;;;29.83;40.59;99620.97;5070027;28;20041;-68
2023/07/24 10:35:46;;;;;;;4.83;3.80;;;;;;;29.73;39.68;99608.22;5070374;28;20400;-67
2023/07/24 10:38:15;;;;;;;4.35;3.08;;;;;;;29.78;40.16;99608.09;5069856;28;20053;-67
2023/07/24 10:40:43;;;;;;;8.80;3.38;;;;;;;29.40;40.37;99609.59;5069761;28;20743;-66
2023/07/24 10:43:12;;;;;;;4.88;3.22;;;;;;;28.92;41.32;99595.19;5072679;28;20055;-67
2023/07/24 10:45:39;;;;;;;7.25;3.20;;;;;;;28.30;42.68;99589.28;5073956;28;20609;-67
2023/07/24 10:48:07;;;;;;;5.70;3.35;;;;;;;27.69;42.80;99587.63;5073754;28;20057;-65
2023/07/24 10:50:42;;;;;;;8.52;3.75;;;;;;;27.61;42.75;99594.66;5073976;28;20052;-67
2023/07/24 10:53:10;;;;;;;6.57;3.42;;;;;;;27.65;42.52;99583.84;5073446;28;20076;-65
2023/07/24 10:55:37;;;;;;;5.90;3.65;;;;;;;27.79;41.73;99570.94;5073864;28;20056;-67
2023/07/24 10:58:03;;;;;;;11.45;3.53;;;;;;;28.18;41.17;99561.44;5073933;28;20458;-68
2023/07/24 11:00:30;;;;;;;6.20;3.63;;;;;;;27.96;40.63;99562.09;5073224;28;20083;-66
2023/07/24 11:02:57;;;;;;;9.38;3.70;;;;;;;27.90;40.38;99557.81;5073178;28;20094;-65
2023/07/24 11:05:24;;;;;;;12.95;3.85;;;;;;;27.19;41.90;99565.31;5073729;28;20127;-66
2023/07/24 11:07:51;;;;;;;8.70;4.40;;;;;;;27.30;42.43;99544.75;5073482;28;20048;-67
2023/07/24 11:10:22;;;;;;;7.03;3.42;;;;;;;27.82;42.01;99541.94;5073440;28;20094;-67
2023/07/24 11:12:51;;;;;;;8.55;3.95;;;;;;;27.78;41.51;99541.75;5073453;28;20045;-67
2023/07/24 11:15:25;;;;;;;6.30;3.80;;;;;;;27.22;42.65;99543.50;5073379;28;20045;-68
2023/07/24 11:17:51;;;;;;;9.15;3.95;;;;;;;26.86;43.75;99534.97;5073226;28;20049;-67
2023/07/24 11:20:18;;;;;;;5.80;3.63;;;;;;;26.81;44.14;99526.78;5072947;28;20143;-67
2023/07/24 11:22:45;;;;;;;9.73;4.30;;;;;;;26.70;44.59;99533.53;5073365;28;20466;-66
2023/07/24 11:25:11;;;;;;;5.60;3.90;;;;;;;26.29;45.35;99525.81;5072471;28;20044;-68
2023/07/24 11:27:41;;;;;;;6.03;3.88;;;;;;;26.00;45.76;99523.94;5073176;28;20070;-67
2023/07/24 11:30:09;;;;;;;8.45;4.70;;;;;;;25.59;46.84;99524.34;5073150;28;20045;-67
2023/07/24 11:32:38;;;;;;;5.88;4.00;;;;;;;25.41;47.00;99526.97;5073162;28;20052;-66